Time;durP1;ratioP1;P1;durP2;ratioP2;P2;SDS_P1;SDS_P2;PMS_P1;PMS_P2;Temp;Humidity;BMP_temperature;BMP_pressure;BME280_temperature;BME280_humidity;BME280_pressure;Samples;Min_cycle;Max_cycle;Signal;HPM_P1;HPM_P2
2023/06/10 00:02:16;;;;;;;14.30;11.05;;;;;;;;;;5010781;28;20034;-75
2023/06/10 00:04:43;;;;;;;17.17;11.85;;;;;;;;;;5010391;28;20080;-74
2023/06/10 00:07:10;;;;;;;19.80;12.25;;;;;;;;;;4993516;28;20025;-75
2023/06/10 00:09:39;;;;;;;19.45;10.95;;;;;;;;;;5014659;28;20026;-74
2023/06/10 00:12:06;;;;;;;17.38;11.07;;;;;;;;;;5014377;28;20029;-74
2023/06/10 00:14:33;;;;;;;16.27;11.23;;;;;;;;;;4996473;28;20025;-75
2023/06/10 00:16:59;;;;;;;18.48;11.38;;;;;;;;;;5013306;28;20419;-74
2023/06/10 00:19:28;;;;;;;17.77;11.52;;;;;;;;;;4996585;28;20057;-75
2023/06/10 00:21:54;;;;;;;20.23;11.57;;;;;;;;;;5014299;28;20512;-74
2023/06/10 00:24:20;;;;;;;15.63;10.70;;;;;;;;;;4996844;28;20069;-75
2023/06/10 00:26:46;;;;;;;16.30;11.55;;;;;;;;;;5012937;28;20033;-74
2023/06/10 00:29:12;;;;;;;17.83;11.98;;;;;;;;;;4996912;28;20046;-74
2023/06/10 00:31:38;;;;;;;17.83;11.65;;;;;;;;;;4996645;28;20674;-74
2023/06/10 00:34:03;;;;;;;15.82;11.57;;;;;;;;;;4996684;28;20030;-74
2023/06/10 00:36:33;;;;;;;20.73;12.50;;;;;;;;;;5014360;28;20096;-75
2023/06/10 00:38:58;;;;;;;16.33;11.40;;;;;;;;;;4996185;28;20084;-73
2023/06/10 00:41:30;;;;;;;19.33;11.27;;;;;;;;;;4996751;28;20461;-73
2023/06/10 00:43:56;;;;;;;19.88;11.98;;;;;;;;;;5013331;28;20088;-74
2023/06/10 00:46:25;;;;;;;18.83;11.70;;;;;;;;;;4996929;28;20053;-73
2023/06/10 00:48:51;;;;;;;16.15;11.07;;;;;;;;;;5014490;28;20018;-74
2023/06/10 00:51:21;;;;;;;16.77;12.18;;;;;;;;;;5014812;28;20395;-74
2023/06/10 00:53:48;;;;;;;14.45;11.07;;;;;;;;;;5013187;28;20025;-76
2023/06/10 00:56:15;;;;;;;20.83;12.52;;;;;;;;;;4998539;28;20072;-75
2023/06/10 00:58:41;;;;;;;16.67;11.10;;;;;;;;;;4998897;28;20037;-74
2023/06/10 01:01:06;;;;;;;15.50;10.95;;;;;;;;;;4987224;28;20051;-75
2023/06/10 01:03:36;;;;;;;18.02;10.80;;;;;;;;;;4983683;28;20023;-74
2023/06/10 01:06:19;;;;;;;19.98;12.30;;;;;;;;;;4985891;28;20023;-75
2023/06/10 01:09:00;;;;;;;19.02;12.40;;;;;;;;;;4983094;28;20309;-73
2023/06/10 01:11:36;;;;;;;21.70;13.40;;;;;;;;;;4975823;28;20046;-75
2023/06/10 01:14:08;;;;;;;22.75;12.63;;;;;;;;;;4973270;28;20033;-74
2023/06/10 01:16:37;;;;;;;23.02;12.77;;;;;;;;;;4973703;28;20027;-75
2023/06/10 01:19:03;;;;;;;22.35;14.05;;;;;;;;;;4972215;28;20688;-74
2023/06/10 01:21:30;;;;;;;23.92;14.02;;;;;;;;;;4974437;28;20019;-73
2023/06/10 01:23:57;;;;;;;21.45;14.48;;;;;;;;;;4973565;28;20057;-74
2023/06/10 01:26:30;;;;;;;23.55;14.18;;;;;;;;;;4973436;28;20118;-74
2023/06/10 01:29:14;;;;;;;19.15;14.02;;;;;;;;;;4974262;28;20078;-74
2023/06/10 01:31:45;;;;;;;25.58;15.02;;;;;;;;;;4972561;28;20109;-75
2023/06/10 01:34:21;;;;;;;23.92;14.60;;;;;;;;;;4972990;28;20033;-75
2023/06/10 01:36:49;;;;;;;21.80;14.00;;;;;;;;;;4974713;28;20133;-75
2023/06/10 01:39:22;;;;;;;19.60;12.63;;;;;;;;;;4973308;28;20170;-74
2023/06/10 01:41:49;;;;;;;20.88;13.45;;;;;;;;;;4974621;28;20104;-73
2023/06/10 01:44:23;;;;;;;21.60;14.70;;;;;;;;;;4972824;28;20041;-74
2023/06/10 01:46:49;;;;;;;19.65;12.25;;;;;;;;;;4972676;28;20030;-74
2023/06/10 01:49:16;;;;;;;22.88;14.50;;;;;;;;;;4972755;28;20019;-75
2023/06/10 01:51:43;;;;;;;16.25;12.07;;;;;;;;;;4972407;28;20027;-74
2023/06/10 01:54:09;;;;;;;18.45;12.57;;;;;;;;;;4973110;28;20018;-74
2023/06/10 01:56:35;;;;;;;23.67;13.63;;;;;;;;;;4974467;28;20098;-74
2023/06/10 01:59:01;;;;;;;24.58;11.65;;;;;;;;;;4974227;28;20030;-74
2023/06/10 02:01:27;;;;;;;17.75;11.75;;;;;;;;;;4972273;28;20109;-75
2023/06/10 02:03:53;;;;;;;17.23;10.82;;;;;;;;;;4972521;28;20041;-75
2023/06/10 02:06:19;;;;;;;19.38;12.25;;;;;;;;;;4973092;28;20027;-75
2023/06/10 02:08:45;;;;;;;18.75;10.43;;;;;;;;;;4972713;28;20403;-74
2023/06/10 02:11:11;;;;;;;16.65;11.65;;;;;;;;;;4973227;28;20026;-74
2023/06/10 02:13:46;;;;;;;14.88;9.80;;;;;;;;;;4973227;28;20027;-75
2023/06/10 02:16:12;;;;;;;15.75;10.55;;;;;;;;;;4972451;28;20026;-73
2023/06/10 02:18:42;;;;;;;17.02;10.80;;;;;;;;;;4973183;28;20029;-75
2023/06/10 02:21:08;;;;;;;15.75;10.55;;;;;;;;;;4971628;28;20070;-74
2023/06/10 02:23:34;;;;;;;14.07;10.70;;;;;;;;;;4971609;28;20030;-73
2023/06/10 02:26:03;;;;;;;16.15;11.07;;;;;;;;;;4971846;28;20026;-75
2023/06/10 02:28:29;;;;;;;17.67;10.90;;;;;;;;;;4973534;28;20027;-74
2023/06/10 02:30:56;;;;;;;17.88;11.32;;;;;;;;;;4972664;28;20051;-73
2023/06/10 02:33:24;;;;;;;23.35;10.95;;;;;;;;;;4972040;28;20527;-74
2023/06/10 02:35:50;;;;;;;16.17;11.52;;;;;;;;;;4972600;28;20399;-75
2023/06/10 02:38:19;;;;;;;15.90;11.05;;;;;;;;;;4971657;28;20512;-73
2023/06/10 02:40:45;;;;;;;16.45;10.98;;;;;;;;;;4971354;28;20042;-75
2023/06/10 02:43:13;;;;;;;17.25;11.50;;;;;;;;;;4971501;28;20026;-74
2023/06/10 02:45:42;;;;;;;16.60;11.43;;;;;;;;;;4971479;28;20117;-74
2023/06/10 02:48:08;;;;;;;15.43;10.77;;;;;;;;;;4971782;28;20043;-75
2023/06/10 02:50:34;;;;;;;19.15;11.55;;;;;;;;;;4971325;28;20041;-74
2023/06/10 02:53:05;;;;;;;18.25;12.13;;;;;;;;;;4973411;28;20106;-73
2023/06/10 02:55:32;;;;;;;15.65;10.30;;;;;;;;;;4971790;28;20170;-74
2023/06/10 02:57:59;;;;;;;17.02;11.02;;;;;;;;;;4971539;28;20038;-74
2023/06/10 03:00:25;;;;;;;18.67;11.75;;;;;;;;;;4988814;28;20046;-74
2023/06/10 03:02:51;;;;;;;19.70;11.88;;;;;;;;;;4994880;28;20510;-74
2023/06/10 03:05:17;;;;;;;18.52;13.15;;;;;;;;;;5011672;28;20057;-74
2023/06/10 03:07:42;;;;;;;19.88;11.75;;;;;;;;;;5011379;28;20124;-75
2023/06/10 03:10:09;;;;;;;17.10;12.32;;;;;;;;;;4995022;28;20364;-74
2023/06/10 03:12:35;;;;;;;16.20;10.85;;;;;;;;;;4978111;28;20512;-75
2023/06/10 03:15:01;;;;;;;14.30;10.25;;;;;;;;;;5012171;28;20030;-74
2023/06/10 03:17:26;;;;;;;14.80;9.73;;;;;;;;;;4995184;28;20030;-73
2023/06/10 03:19:52;;;;;;;16.63;10.60;;;;;;;;;;4994405;28;20021;-75
2023/06/10 03:22:18;;;;;;;16.23;10.50;;;;;;;;;;4994770;28;20033;-73
2023/06/10 03:24:50;;;;;;;14.07;9.93;;;;;;;;;;5012852;28;20052;-74
2023/06/10 03:27:19;;;;;;;14.82;10.20;;;;;;;;;;4995018;28;20044;-74
2023/06/10 03:29:45;;;;;;;16.60;11.48;;;;;;;;;;4995189;28;20057;-74
2023/06/10 03:32:11;;;;;;;15.88;10.50;;;;;;;;;;4994827;28;20029;-71
2023/06/10 03:34:36;;;;;;;19.08;10.30;;;;;;;;;;5012770;28;20022;-74
2023/06/10 03:37:03;;;;;;;13.90;9.50;;;;;;;;;;4994341;28;20068;-74
2023/06/10 03:39:32;;;;;;;14.85;10.40;;;;;;;;;;4994477;28;20382;-73
2023/06/10 03:41:59;;;;;;;14.45;9.52;;;;;;;;;;5010409;28;20705;-74
2023/06/10 03:44:25;;;;;;;17.08;9.38;;;;;;;;;;4994200;28;20109;-74
2023/06/10 03:46:56;;;;;;;13.25;9.70;;;;;;;;;;4993745;28;20121;-75
2023/06/10 03:49:26;;;;;;;15.40;10.85;;;;;;;;;;5012724;28;20112;-74
2023/06/10 03:51:58;;;;;;;16.33;12.03;;;;;;;;;;4994305;28;20618;-73
2023/06/10 03:54:31;;;;;;;15.00;10.32;;;;;;;;;;5012499;28;20338;-74
2023/06/10 03:56:57;;;;;;;21.13;12.02;;;;;;;;;;4993421;28;20172;-75
2023/06/10 03:59:37;;;;;;;16.17;9.90;;;;;;;;;;4994426;28;20117;-73
2023/06/10 04:02:04;;;;;;;14.05;10.85;;;;;;;;;;4993949;28;20041;-75
2023/06/10 04:04:37;;;;;;;17.15;11.65;;;;;;;;;;4993713;28;20030;-74
2023/06/10 04:07:08;;;;;;;15.07;10.50;;;;;;;;;;4994550;28;20030;-74
2023/06/10 04:09:35;;;;;;;12.77;9.27;;;;;;;;;;4993539;28;20438;-74
2023/06/10 04:12:02;;;;;;;17.17;11.05;;;;;;;;;;4992598;28;20514;-74
2023/06/10 04:14:28;;;;;;;16.98;12.15;;;;;;;;;;5009282;28;20693;-74
2023/06/10 04:16:54;;;;;;;14.82;10.40;;;;;;;;;;5011053;28;20029;-74
2023/06/10 04:19:21;;;;;;;14.07;10.32;;;;;;;;;;5011054;28;20026;-74
2023/06/10 04:21:47;;;;;;;16.60;11.75;;;;;;;;;;4992844;28;20038;-74
2023/06/10 04:24:13;;;;;;;15.30;10.55;;;;;;;;;;4977221;28;20117;-75
2023/06/10 04:26:39;;;;;;;15.98;11.15;;;;;;;;;;4993271;28;20117;-74
2023/06/10 04:29:05;;;;;;;15.45;11.63;;;;;;;;;;4994326;28;20022;-74
2023/06/10 04:31:32;;;;;;;15.95;10.35;;;;;;;;;;4994224;28;20026;-74
2023/06/10 04:34:01;;;;;;;15.50;10.25;;;;;;;;;;4993941;28;20469;-75
2023/06/10 04:36:29;;;;;;;15.45;10.43;;;;;;;;;;4978312;28;20084;-75
2023/06/10 04:38:57;;;;;;;14.90;9.32;;;;;;;;;;5011989;28;20022;-74
2023/06/10 04:41:23;;;;;;;15.70;9.85;;;;;;;;;;5010436;28;20414;-74
2023/06/10 04:43:53;;;;;;;14.00;10.77;;;;;;;;;;4994580;28;20022;-74
2023/06/10 04:46:23;;;;;;;14.93;10.02;;;;;;;;;;4994592;28;20026;-76
2023/06/10 04:48:49;;;;;;;14.27;10.77;;;;;;;;;;4994103;28;20441;-75
2023/06/10 04:51:16;;;;;;;15.00;10.63;;;;;;;;;;5011408;28;20029;-74
2023/06/10 04:53:46;;;;;;;15.40;11.45;;;;;;;;;;4993788;28;20025;-74
2023/06/10 04:56:11;;;;;;;15.23;10.18;;;;;;;;;;4996985;28;20034;-75
2023/06/10 04:58:40;;;;;;;12.10;9.68;;;;;;;;;;4997879;28;20111;-73
2023/06/10 05:01:06;;;;;;;12.63;9.30;;;;;;;;;;4997530;28;20129;-74
2023/06/10 05:03:32;;;;;;;17.52;12.20;;;;;;;;;;5013952;28;20156;-74
2023/06/10 05:05:58;;;;;;;14.63;9.70;;;;;;;;;;4996890;28;20106;-73
2023/06/10 05:08:26;;;;;;;13.55;10.55;;;;;;;;;;4997460;28;20529;-74
2023/06/10 05:10:52;;;;;;;27.35;19.13;;;;;;;;;;4998076;28;20032;-73
2023/06/10 05:13:18;;;;;;;16.63;12.13;;;;;;;;;;4998416;28;20033;-74
2023/06/10 05:15:47;;;;;;;15.88;10.90;;;;;;;;;;5015827;28;20048;-73
2023/06/10 05:18:12;;;;;;;16.25;11.85;;;;;;;;;;5000426;28;20022;-75
2023/06/10 05:20:40;;;;;;;22.48;13.30;;;;;;;;;;5020813;28;20081;-74
2023/06/10 05:23:06;;;;;;;19.55;13.80;;;;;;;;;;5020016;28;20471;-73
2023/06/10 05:25:32;;;;;;;21.20;13.55;;;;;;;;;;5006902;28;20117;-74
2023/06/10 05:28:00;;;;;;;19.55;13.40;;;;;;;;;;5008778;28;20553;-75
2023/06/10 05:30:26;;;;;;;21.40;13.50;;;;;;;;;;5019838;28;20072;-74
2023/06/10 05:32:56;;;;;;;25.17;14.25;;;;;;;;;;4996843;28;20022;-74
2023/06/10 05:35:25;;;;;;;18.63;13.50;;;;;;;;;;4996464;28;20498;-74
2023/06/10 05:37:51;;;;;;;20.42;14.38;;;;;;;;;;5013393;28;20040;-75
2023/06/10 05:40:17;;;;;;;19.98;12.95;;;;;;;;;;4995672;28;20026;-73
2023/06/10 05:42:46;;;;;;;17.45;12.55;;;;;;;;;;4995342;28;20036;-75
2023/06/10 05:45:12;;;;;;;16.85;12.27;;;;;;;;;;4995956;28;20064;-75
2023/06/10 05:47:40;;;;;;;16.70;11.23;;;;;;;;;;4996158;28;20030;-74
2023/06/10 05:50:08;;;;;;;15.93;9.32;;;;;;;;;;4980110;28;20018;-75
2023/06/10 05:52:35;;;;;;;9.88;7.85;;;;;;;;;;4996036;28;20026;-74
2023/06/10 05:55:03;;;;;;;7.90;6.22;;;;;;;;;;4996053;28;20077;-74
2023/06/10 05:57:29;;;;;;;8.45;6.70;;;;;;;;;;5013061;28;20104;-74
2023/06/10 05:59:55;;;;;;;8.93;6.93;;;;;;;;;;4988583;28;20134;-75
2023/06/10 06:02:21;;;;;;;9.15;7.10;;;;;;;;;;4972738;28;20484;-75
2023/06/10 06:04:49;;;;;;;8.90;6.70;;;;;;;;;;4974233;28;20070;-75
2023/06/10 06:07:15;;;;;;;8.18;6.75;;;;;;;;;;4972925;28;20027;-74
2023/06/10 06:09:42;;;;;;;7.13;5.93;;;;;;;;;;4974849;28;20133;-74
2023/06/10 06:12:08;;;;;;;10.23;7.03;;;;;;;;;;4972952;28;20110;-75
2023/06/10 06:14:39;;;;;;;12.20;6.80;;;;;;;;;;4974796;28;20026;-74
2023/06/10 06:17:06;;;;;;;9.57;7.07;;;;;;;;;;4973120;28;20026;-77
2023/06/10 06:19:35;;;;;;;9.52;7.68;;;;;;;;;;4973337;28;20041;-75
2023/06/10 06:22:01;;;;;;;9.35;7.00;;;;;;;;;;4972935;28;20061;-75
2023/06/10 06:24:34;;;;;;;10.35;7.18;;;;;;;;;;4973032;28;20049;-74
2023/06/10 06:27:03;;;;;;;11.65;7.63;;;;;;;;;;4973645;28;20089;-74
2023/06/10 06:29:32;;;;;;;9.90;7.18;;;;;;;;;;4974405;28;20023;-73
2023/06/10 06:31:58;;;;;;;9.68;6.60;;;;;;;;;;4974837;28;20129;-74
2023/06/10 06:34:28;;;;;;;16.73;7.85;;;;;;;;;;4974563;28;20035;-74
2023/06/10 06:36:54;;;;;;;7.47;6.68;;;;;;;;;;4972975;28;20437;-74
2023/06/10 06:39:20;;;;;;;7.88;6.93;;;;;;;;;;4973155;28;20069;-74
2023/06/10 06:41:56;;;;;;;7.60;6.78;;;;;;;;;;4973408;28;20031;-73
2023/06/10 06:44:23;;;;;;;9.98;7.15;;;;;;;;;;4973775;28;20026;-76
2023/06/10 06:46:48;;;;;;;7.60;6.03;;;;;;;;;;4979422;28;20173;-78
2023/06/10 06:49:14;;;;;;;7.90;6.50;;;;;;;;;;4978889;28;20043;-76
2023/06/10 06:51:40;;;;;;;11.43;6.70;;;;;;;;;;4978171;28;20399;-77
2023/06/10 06:54:09;;;;;;;20.25;8.55;;;;;;;;;;4974369;28;20050;-77
2023/06/10 06:56:35;;;;;;;7.65;6.18;;;;;;;;;;4973987;28;20102;-76
2023/06/10 06:59:07;;;;;;;8.52;6.13;;;;;;;;;;4975462;28;20152;-77
2023/06/10 07:01:37;;;;;;;7.07;6.38;;;;;;;;;;5008477;28;20053;-77
2023/06/10 07:04:09;;;;;;;7.45;5.93;;;;;;;;;;4995836;28;20029;-76
2023/06/10 07:06:36;;;;;;;6.95;6.25;;;;;;;;;;4995727;28;20096;-76
2023/06/10 07:09:05;;;;;;;8.68;6.00;;;;;;;;;;5013746;28;20026;-76
2023/06/10 07:11:32;;;;;;;6.15;5.07;;;;;;;;;;4996758;28;20032;-77
2023/06/10 07:13:58;;;;;;;8.38;6.32;;;;;;;;;;5013870;28;20057;-77
2023/06/10 07:16:30;;;;;;;8.98;6.15;;;;;;;;;;5012834;28;20117;-78
2023/06/10 07:18:56;;;;;;;8.20;7.30;;;;;;;;;;4996318;28;20037;-77
2023/06/10 07:21:23;;;;;;;6.50;5.78;;;;;;;;;;4997911;28;20080;-77
2023/06/10 07:23:49;;;;;;;10.73;7.80;;;;;;;;;;4996420;28;20398;-76
2023/06/10 07:26:15;;;;;;;9.10;6.50;;;;;;;;;;4995038;28;20029;-77
2023/06/10 07:28:44;;;;;;;12.15;7.05;;;;;;;;;;5012759;28;20025;-76
2023/06/10 07:31:11;;;;;;;11.60;7.32;;;;;;;;;;4994420;28;20018;-76
2023/06/10 07:33:39;;;;;;;8.40;7.18;;;;;;;;;;4995951;28;20030;-75
2023/06/10 07:36:08;;;;;;;9.38;6.65;;;;;;;;;;4995839;28;20373;-77
2023/06/10 07:38:37;;;;;;;10.02;6.93;;;;;;;;;;4979503;28;20061;-77
2023/06/10 07:41:06;;;;;;;8.65;7.03;;;;;;;;;;4995913;28;20105;-76
2023/06/10 07:43:32;;;;;;;10.25;6.82;;;;;;;;;;4995890;28;20065;-77
2023/06/10 07:46:00;;;;;;;12.45;7.47;;;;;;;;;;4994622;28;20097;-75
2023/06/10 07:48:26;;;;;;;8.05;6.32;;;;;;;;;;5013370;28;20099;-76
2023/06/10 07:50:54;;;;;;;9.75;7.97;;;;;;;;;;4995366;28;20057;-77
2023/06/10 07:53:28;;;;;;;17.40;7.85;;;;;;;;;;5014031;28;20048;-78
2023/06/10 07:56:01;;;;;;;10.82;8.05;;;;;;;;;;4996313;28;20021;-79
2023/06/10 07:58:27;;;;;;;8.70;7.40;;;;;;;;;;4996784;28;20026;-77
2023/06/10 08:01:02;;;;;;;10.85;7.70;;;;;;;;;;4982218;28;20047;-78
2023/06/10 08:03:31;;;;;;;15.30;8.68;;;;;;;;;;4974128;28;20035;-77
2023/06/10 08:05:58;;;;;;;12.15;7.93;;;;;;;;;;4974356;28;20411;-77
2023/06/10 08:08:25;;;;;;;13.48;7.97;;;;;;;;;;4974132;28;20046;-75
2023/06/10 08:10:56;;;;;;;9.05;7.72;;;;;;;;;;4973540;28;20034;-75
2023/06/10 08:13:33;;;;;;;14.43;8.38;;;;;;;;;;4974217;28;20121;-77
2023/06/10 08:16:07;;;;;;;11.50;7.55;;;;;;;;;;4959194;28;20424;-77
2023/06/10 08:18:40;;;;;;;11.75;7.40;;;;;;;;;;4973222;28;20026;-77
2023/06/10 08:21:07;;;;;;;9.98;8.35;;;;;;;;;;4976534;28;20464;-76
2023/06/10 08:23:36;;;;;;;10.38;8.20;;;;;;;;;;4973827;28;20550;-76
2023/06/10 08:26:02;;;;;;;13.10;8.05;;;;;;;;;;4974912;28;20019;-76
2023/06/10 08:28:30;;;;;;;9.63;7.28;;;;;;;;;;4975671;28;20081;-77
2023/06/10 08:30:57;;;;;;;8.68;7.80;;;;;;;;;;4977379;28;20101;-77
2023/06/10 08:33:23;;;;;;;11.90;8.32;;;;;;;;;;4976202;28;20050;-77
2023/06/10 08:35:49;;;;;;;10.07;8.15;;;;;;;;;;4978397;28;20061;-77
2023/06/10 08:38:16;;;;;;;9.82;7.90;;;;;;;;;;4976977;28;20026;-77
2023/06/10 08:40:42;;;;;;;10.00;8.32;;;;;;;;;;4976498;28;20027;-76
2023/06/10 08:43:31;;;;;;;11.60;8.05;;;;;;;;;;4976608;28;20026;-77
2023/06/10 08:46:03;;;;;;;8.73;7.68;;;;;;;;;;4977827;28;20065;-76
2023/06/10 08:48:31;;;;;;;15.75;8.27;;;;;;;;;;4980067;28;20027;-76
2023/06/10 08:50:58;;;;;;;9.23;7.70;;;;;;;;;;4980385;28;20027;-76
2023/06/10 08:53:29;;;;;;;9.13;8.00;;;;;;;;;;4980813;28;20038;-76
2023/06/10 08:56:16;;;;;;;11.35;8.15;;;;;;;;;;4980473;28;20018;-76
2023/06/10 08:58:53;;;;;;;9.50;8.30;;;;;;;;;;4981569;28;20089;-78
2023/06/10 09:01:20;;;;;;;14.55;9.63;;;;;;;;;;4981941;28;20113;-77
2023/06/10 09:03:56;;;;;;;13.27;9.55;;;;;;;;;;4982841;28;20379;-77
2023/06/10 09:06:30;;;;;;;17.95;12.13;;;;;;;;;;4980386;28;20037;-77
2023/06/10 09:09:00;;;;;;;14.80;10.85;;;;;;;;;;4983082;28;20096;-76
2023/06/10 09:11:26;;;;;;;17.55;10.80;;;;;;;;;;4980712;28;20133;-77
2023/06/10 09:13:55;;;;;;;16.75;9.70;;;;;;;;;;4981926;28;20491;-77
2023/06/10 09:16:46;;;;;;;17.88;9.65;;;;;;;;;;4981064;28;20034;-77
2023/06/10 09:19:14;;;;;;;17.20;9.82;;;;;;;;;;4979526;28;20121;-77
2023/06/10 09:21:40;;;;;;;11.25;9.35;;;;;;;;;;4979439;28;20027;-77
2023/06/10 09:24:10;;;;;;;11.98;9.95;;;;;;;;;;4980296;28;20027;-76
2023/06/10 09:26:45;;;;;;;15.25;10.18;;;;;;;;;;4981074;28;20035;-77
2023/06/10 09:29:19;;;;;;;13.13;9.55;;;;;;;;;;4980905;28;20034;-77
2023/06/10 09:31:45;;;;;;;12.35;9.80;;;;;;;;;;4974476;28;20027;-78
2023/06/10 09:34:16;;;;;;;12.55;9.13;;;;;;;;;;4976107;28;20531;-76
2023/06/10 09:36:42;;;;;;;;;;;;;;;;;;4981855;28;20096;-77
2023/06/10 09:39:17;;;;;;;13.57;9.75;;;;;;;;;;4979021;28;19910;-76
2023/06/10 09:41:46;;;;;;;12.95;9.77;;;;;;;;;;4989527;28;20035;-78
2023/06/10 09:44:20;;;;;;;14.60;10.85;;;;;;;;;;5009944;28;20030;-77
2023/06/10 09:46:47;;;;;;;16.15;11.98;;;;;;;;;;4992883;28;20027;-75
2023/06/10 09:49:13;;;;;;;14.27;11.85;;;;;;;;;;4990640;28;20027;-75
2023/06/10 09:51:50;;;;;;;13.48;9.98;;;;;;;;;;4982603;28;20467;-76
2023/06/10 09:54:16;;;;;;;13.50;10.75;;;;;;;;;;4980724;28;20034;-76
2023/06/10 09:56:43;;;;;;;14.63;10.45;;;;;;;;;;4980674;28;20038;-76
2023/06/10 09:59:15;;;;;;;23.80;11.52;;;;;;;;;;4980328;28;20038;-77
2023/06/10 10:01:54;;;;;;;14.23;10.48;;;;;;;;;;4981611;28;20357;-78
2023/06/10 10:04:28;;;;;;;16.65;10.27;;;;;;;;;;4981828;28;20030;-77
2023/06/10 10:07:09;;;;;;;15.40;11.07;;;;;;;;;;4980674;28;20038;-79
2023/06/10 10:09:48;;;;;;;14.52;9.43;;;;;;;;;;4980530;28;20030;-77
2023/06/10 10:12:16;;;;;;;14.45;9.75;;;;;;;;;;4980431;28;20106;-76
2023/06/10 10:14:50;;;;;;;12.27;9.73;;;;;;;;;;4980795;28;20029;-76
2023/06/10 10:17:18;;;;;;;28.42;12.18;;;;;;;;;;4980552;28;20106;-77
2023/06/10 10:20:04;;;;;;;11.25;9.50;;;;;;;;;;4963408;28;20035;-76
2023/06/10 10:22:39;;;;;;;14.70;9.77;;;;;;;;;;4963923;28;20093;-78
2023/06/10 10:25:12;;;;;;;10.48;8.95;;;;;;;;;;4979268;28;20078;-77
2023/06/10 10:27:45;;;;;;;14.73;9.73;;;;;;;;;;4978687;28;20480;-78
2023/06/10 10:30:14;;;;;;;10.27;8.57;;;;;;;;;;4978805;28;20061;-77
2023/06/10 10:33:20;;;;;;;18.05;9.18;;;;;;;;;;4978390;28;20094;-76
2023/06/10 10:35:49;;;;;;;12.60;9.15;;;;;;;;;;4902841;29;20382;-77
2023/06/10 10:38:41;;;;;;;12.55;8.43;;;;;;;;;;4904233;29;20119;-76
2023/06/10 10:41:20;;;;;;;12.50;8.60;;;;;;;;;;4960132;28;20038;-79
2023/06/10 10:43:48;;;;;;;9.55;7.75;;;;;;;;;;4979161;28;20018;-76
2023/06/10 10:46:24;;;;;;;10.25;6.93;;;;;;;;;;4977620;28;20597;-77
2023/06/10 10:48:59;;;;;;;9.80;7.75;;;;;;;;;;4978969;28;20454;-77
2023/06/10 10:51:34;;;;;;;10.27;8.10;;;;;;;;;;4979547;28;20023;-78
2023/06/10 10:54:15;;;;;;;10.32;7.07;;;;;;;;;;4977987;28;20446;-77
2023/06/10 10:57:12;;;;;;;10.60;6.70;;;;;;;;;;4978531;28;20034;-77
2023/06/10 10:59:59;;;;;;;12.60;7.03;;;;;;;;;;4977107;28;20106;-78
2023/06/10 11:02:42;;;;;;;10.57;6.93;;;;;;;;;;4977611;28;20046;-78
2023/06/10 11:05:11;;;;;;;15.80;7.10;;;;;;;;;;4976625;28;20197;-77
2023/06/10 11:07:38;;;;;;;9.32;6.47;;;;;;;;;;4975382;28;20217;-75
2023/06/10 11:10:13;;;;;;;8.52;7.10;;;;;;;;;;4976183;28;20085;-77
2023/06/10 11:12:54;;;;;;;10.55;7.10;;;;;;;;;;4976323;28;20109;-76
2023/06/10 11:15:28;;;;;;;7.50;6.80;;;;;;;;;;4977692;28;20035;-77
2023/06/10 11:18:27;;;;;;;9.70;6.80;;;;;;;;;;4972750;28;20051;-76
2023/06/10 11:20:59;;;;;;;11.63;7.43;;;;;;;;;;4959284;29;20062;-76
2023/06/10 11:23:31;;;;;;;17.58;8.38;;;;;;;;;;4958385;29;20035;-79
2023/06/10 11:26:13;;;;;;;10.25;7.18;;;;;;;;;;4960583;28;20604;-77
2023/06/10 11:29:03;;;;;;;12.80;8.15;;;;;;;;;;4960385;29;20035;-76
2023/06/10 11:31:31;;;;;;;8.23;6.45;;;;;;;;;;4959883;29;20071;-77
2023/06/10 11:34:05;;;;;;;12.82;7.07;;;;;;;;;;4959363;28;20035;-78
2023/06/10 11:36:31;;;;;;;9.57;6.70;;;;;;;;;;4960964;28;20042;-77
2023/06/10 11:39:02;;;;;;;10.00;7.38;;;;;;;;;;4954498;28;20448;-77
2023/06/10 11:41:30;;;;;;;11.35;8.10;;;;;;;;;;4952468;29;20027;-77
2023/06/10 11:44:17;;;;;;;9.88;7.22;;;;;;;;;;4936586;29;20536;-77
2023/06/10 11:46:42;;;;;;;9.77;6.75;;;;;;;;;;4951799;29;20042;-77
2023/06/10 11:49:09;;;;;;;8.57;7.43;;;;;;;;;;4953629;29;20135;-77
2023/06/10 11:51:40;;;;;;;11.55;7.45;;;;;;;;;;4955930;29;20038;-76
2023/06/10 11:54:08;;;;;;;10.30;7.22;;;;;;;;;;4952804;29;20591;-77
2023/06/10 11:56:34;;;;;;;9.00;7.22;;;;;;;;;;4951188;29;20090;-77
2023/06/10 11:59:06;;;;;;;14.60;9.88;;;;;;;;;;4952064;28;20027;-76
2023/06/10 12:01:34;;;;;;;9.43;7.20;;;;;;;;;;4964183;28;20054;-76
2023/06/10 12:04:07;;;;;;;10.90;7.30;;;;;;;;;;4972951;28;20015;-76
2023/06/10 12:06:50;;;;;;;10.20;7.22;;;;;;;;;;4976649;28;20031;-77
2023/06/10 12:09:15;;;;;;;11.35;7.15;;;;;;;;;;4976284;28;20538;-76
2023/06/10 12:11:43;;;;;;;9.77;7.10;;;;;;;;;;4976365;28;20094;-76
2023/06/10 12:14:09;;;;;;;10.77;7.72;;;;;;;;;;4975523;28;20035;-76
2023/06/10 12:16:35;;;;;;;10.05;6.85;;;;;;;;;;4977272;28;20034;-75
2023/06/10 12:19:05;;;;;;;8.57;7.30;;;;;;;;;;4977306;28;20392;-77
2023/06/10 12:21:32;;;;;;;13.43;7.22;;;;;;;;;;4975984;28;20317;-78
2023/06/10 12:24:09;;;;;;;8.27;6.65;;;;;;;;;;4975813;28;20038;-77
2023/06/10 12:26:41;;;;;;;12.85;7.22;;;;;;;;;;4977587;28;20483;-77
2023/06/10 12:29:20;;;;;;;9.13;6.80;;;;;;;;;;4975925;28;20472;-76
2023/06/10 12:32:00;;;;;;;7.35;6.45;;;;;;;;;;4976099;28;20027;-77
2023/06/10 12:34:36;;;;;;;8.18;7.20;;;;;;;;;;4961058;28;20054;-76
2023/06/10 12:37:06;;;;;;;10.27;7.35;;;;;;;;;;4977608;28;20031;-77
2023/06/10 12:39:33;;;;;;;9.13;6.80;;;;;;;;;;4961114;28;20034;-75
2023/06/10 12:42:00;;;;;;;7.50;6.80;;;;;;;;;;4975586;28;20027;-77
2023/06/10 12:44:30;;;;;;;10.15;6.97;;;;;;;;;;4977878;28;20054;-77
2023/06/10 12:46:56;;;;;;;8.77;7.43;;;;;;;;;;4976001;28;20038;-76
2023/06/10 12:49:22;;;;;;;6.75;6.07;;;;;;;;;;4977115;28;20133;-77
2023/06/10 12:51:48;;;;;;;10.13;6.18;;;;;;;;;;4977356;28;20468;-76
2023/06/10 12:54:14;;;;;;;7.32;6.28;;;;;;;;;;4975211;28;20041;-77
2023/06/10 12:56:40;;;;;;;8.38;6.30;;;;;;;;;;4977258;28;20031;-76
2023/06/10 12:59:05;;;;;;;7.75;6.70;;;;;;;;;;4975554;28;20038;-77
2023/06/10 13:01:31;;;;;;;10.23;5.78;;;;;;;;;;4975198;28;20057;-76
2023/06/10 13:03:57;;;;;;;7.75;6.75;;;;;;;;;;4976765;28;20021;-77
2023/06/10 13:06:23;;;;;;;9.30;5.82;;;;;;;;;;4975287;28;20106;-76
2023/06/10 13:08:48;;;;;;;6.95;6.13;;;;;;;;;;4977023;28;20054;-77
2023/06/10 13:11:14;;;;;;;8.60;5.72;;;;;;;;;;4975609;28;20077;-76
2023/06/10 13:13:39;;;;;;;14.90;5.70;;;;;;;;;;4975336;28;20026;-77
2023/06/10 13:16:05;;;;;;;7.78;5.72;;;;;;;;;;4971984;28;20037;-77
2023/06/10 13:18:37;;;;;;;11.10;5.72;;;;;;;;;;4973874;28;20066;-78
2023/06/10 13:21:03;;;;;;;6.22;5.32;;;;;;;;;;4974099;28;20035;-76
2023/06/10 13:23:29;;;;;;;7.40;5.43;;;;;;;;;;4971879;28;20062;-77
2023/06/10 13:25:55;;;;;;;6.78;5.78;;;;;;;;;;4972946;28;20073;-75
2023/06/10 13:28:21;;;;;;;9.85;5.63;;;;;;;;;;4972424;28;20051;-76
2023/06/10 13:30:46;;;;;;;9.40;6.70;;;;;;;;;;4973537;28;20031;-77
2023/06/10 13:33:12;;;;;;;6.25;5.65;;;;;;;;;;4974720;28;20538;-77
2023/06/10 13:35:37;;;;;;;7.10;5.78;;;;;;;;;;4972116;28;20035;-77
2023/06/10 13:38:03;;;;;;;6.28;5.43;;;;;;;;;;4971899;28;20516;-76
2023/06/10 13:40:28;;;;;;;11.90;6.18;;;;;;;;;;4972981;28;20388;-77
2023/06/10 13:42:54;;;;;;;9.93;6.45;;;;;;;;;;4971773;28;20034;-77
2023/06/10 13:45:19;;;;;;;7.70;6.25;;;;;;;;;;4973033;28;20034;-77
2023/06/10 13:47:45;;;;;;;10.88;6.43;;;;;;;;;;4973472;28;20026;-76
2023/06/10 13:50:11;;;;;;;8.85;7.25;;;;;;;;;;4971499;28;20516;-77
2023/06/10 13:52:36;;;;;;;8.38;6.55;;;;;;;;;;4973204;28;20143;-77
2023/06/10 13:55:02;;;;;;;11.43;6.75;;;;;;;;;;4971881;28;20057;-76
2023/06/10 13:57:28;;;;;;;12.82;7.97;;;;;;;;;;4972683;28;20468;-77
2023/06/10 13:59:53;;;;;;;13.82;7.28;;;;;;;;;;4974440;28;20074;-76
2023/06/10 14:02:19;;;;;;;9.70;7.38;;;;;;;;;;4978810;28;20494;-76
2023/06/10 14:04:44;;;;;;;14.98;9.07;;;;;;;;;;4980686;28;20031;-77
2023/06/10 14:07:10;;;;;;;9.63;6.82;;;;;;;;;;4980530;28;20026;-76
2023/06/10 14:09:35;;;;;;;23.63;9.93;;;;;;;;;;4984275;28;20050;-76
2023/06/10 14:12:03;;;;;;;16.08;8.80;;;;;;;;;;5002445;28;20026;-76
2023/06/10 14:14:28;;;;;;;10.48;7.18;;;;;;;;;;4977634;28;20363;-77
2023/06/10 14:16:54;;;;;;;10.13;6.50;;;;;;;;;;4994978;28;20026;-77
2023/06/10 14:19:19;;;;;;;8.93;6.97;;;;;;;;;;4976544;28;20065;-78
2023/06/10 14:21:45;;;;;;;7.22;6.28;;;;;;;;;;4993414;28;20113;-77
2023/06/10 14:24:10;;;;;;;10.57;6.47;;;;;;;;;;4974282;28;20033;-76
2023/06/10 14:26:36;;;;;;;7.45;6.25;;;;;;;;;;4992005;28;20026;-77
2023/06/10 14:29:02;;;;;;;13.75;6.82;;;;;;;;;;4974301;28;20455;-76
2023/06/10 14:31:28;;;;;;;11.90;6.03;;;;;;;;;;4992098;28;20374;-77
2023/06/10 14:33:53;;;;;;;8.93;6.43;;;;;;;;;;4974021;28;20026;-76
2023/06/10 14:36:19;;;;;;;7.65;6.00;;;;;;;;;;4975116;28;20031;-78
2023/06/10 14:38:46;;;;;;;10.57;6.25;;;;;;;;;;4992546;28;20026;-76
2023/06/10 14:41:11;;;;;;;11.35;6.47;;;;;;;;;;4975083;28;20019;-78